Time;durP1;ratioP1;P1;durP2;ratioP2;P2;SDS_P1;SDS_P2;PMS_P1;PMS_P2;Temp;Humidity;BMP_temperature;BMP_pressure;BME280_temperature;BME280_humidity;BME280_pressure;Samples;Min_cycle;Max_cycle;Signal;HPM_P1;HPM_P2
2023/06/20 00:00:25;;;;;;;;;2.67;2.00;;;;;;;;2026302;28;2752438;-76
2023/06/20 00:01:38;;;;;;;;;2.00;2.00;;;;;;;;2028641;28;2738155;-76
2023/06/20 00:02:48;;;;;;;;;2.00;2.00;;;;;;;;1980548;28;2752364;-76
2023/06/20 00:03:59;;;;;;;;;3.00;2.00;;;;;;;;2026714;28;2741932;-76
2023/06/20 00:05:09;;;;;;;;;4.00;2.00;;;;;;;;2002144;28;2754519;-76
2023/06/20 00:06:22;;;;;;;;;3.00;3.00;;;;;;;;2027344;28;2733611;-76
2023/06/20 00:07:32;;;;;;;;;3.00;2.00;;;;;;;;2003438;28;2745042;-76
2023/06/20 00:08:45;;;;;;;;;2.20;2.20;;;;;;;;2027667;28;2740894;-77
2023/06/20 00:09:58;;;;;;;;;3.50;1.50;;;;;;;;2027473;28;2744028;-77
2023/06/20 00:11:11;;;;;;;;;1.00;1.00;;;;;;;;2006146;28;2728383;-77
2023/06/20 00:12:24;;;;;;;;;2.33;1.67;;;;;;;;2005660;28;2725356;-77
2023/06/20 00:13:34;;;;;;;;;2.00;2.00;;;;;;;;1971787;28;2754503;-77
2023/06/20 00:14:45;;;;;;;;;4.33;2.00;;;;;;;;2020197;28;2750317;-77
2023/06/20 00:15:57;;;;;;;;;2.00;2.00;;;;;;;;2027360;28;2746158;-77
2023/06/20 00:17:07;;;;;;;;;2.00;2.00;;;;;;;;2004182;28;2751350;-77
2023/06/20 00:18:18;;;;;;;;;2.00;2.00;;;;;;;;2026119;28;2752402;-75
2023/06/20 00:19:31;;;;;;;;;2.33;1.67;;;;;;;;2027886;28;2737754;-77
2023/06/20 00:20:46;;;;;;;;;2.50;1.00;;;;;;;;2029091;28;2724217;-77
2023/06/20 00:21:56;;;;;;;;;5.33;2.00;;;;;;;;1979961;28;2754520;-77
2023/06/20 00:23:07;;;;;;;;;1.00;1.00;;;;;;;;2026502;28;2739883;-76
2023/06/20 00:24:21;;;;;;;;;1.00;1.00;;;;;;;;2028604;28;2717432;-76
2023/06/20 00:25:34;;;;;;;;;1.00;1.00;;;;;;;;2029350;28;2727366;-74
2023/06/20 00:26:47;;;;;;;;;2.33;1.00;;;;;;;;1996141;28;2732562;-74
2023/06/20 00:27:57;;;;;;;;;3.00;1.67;;;;;;;;1972697;28;2747179;-73
2023/06/20 00:29:08;;;;;;;;;1.00;1.00;;;;;;;;2028752;28;2725277;-76
2023/06/20 00:30:21;;;;;;;;;1.50;1.50;;;;;;;;2028787;28;2733599;-77
2023/06/20 00:31:36;;;;;;;;;2.50;1.67;;;;;;;;2006391;28;2736717;-78
2023/06/20 00:32:49;;;;;;;;;1.17;0.00;;;;;;;;2007496;28;2729472;-77
2023/06/20 00:33:59;;;;;;;;;3.67;2.00;;;;;;;;1977705;28;2748184;-77
2023/06/20 00:35:10;;;;;;;;;4.00;2.00;;;;;;;;2027144;28;2736735;-77
2023/06/20 00:36:25;;;;;;;;;2.00;2.00;;;;;;;;2002799;28;2746093;-77
2023/06/20 00:37:38;;;;;;;;;3.00;3.00;;;;;;;;2028311;28;2737802;-77
2023/06/20 00:38:48;;;;;;;;;2.00;2.00;;;;;;;;1980226;28;2734652;-77
2023/06/20 00:39:59;;;;;;;;;2.00;2.00;;;;;;;;2016025;28;2740322;-77
2023/06/20 00:41:10;;;;;;;;;2.33;1.00;;;;;;;;2028385;28;2729460;-77
2023/06/20 00:42:24;;;;;;;;;3.00;2.00;;;;;;;;2002279;28;2750279;-77
2023/06/20 00:43:34;;;;;;;;;3.00;1.00;;;;;;;;2000675;28;2738803;-77
2023/06/20 00:44:46;;;;;;;;;3.00;1.67;;;;;;;;2027515;28;2739872;-77
2023/06/20 00:45:59;;;;;;;;;2.00;2.00;;;;;;;;2028899;28;2737814;-76
2023/06/20 00:47:15;;;;;;;;;4.50;3.00;;;;;;;;2006215;28;2746109;-76
2023/06/20 00:48:28;;;;;;;;;3.00;1.83;;;;;;;;2005612;28;2734644;-77
2023/06/20 00:49:42;;;;;;;;;2.33;1.67;;;;;;;;2007311;28;2741956;-77
2023/06/20 00:50:56;;;;;;;;;2.17;2.00;;;;;;;;2006094;28;2741932;-77
2023/06/20 00:52:06;;;;;;;;;2.33;2.00;;;;;;;;1981702;28;2751349;-76
2023/06/20 00:53:17;;;;;;;;;3.67;3.00;;;;;;;;2026717;28;2741939;-77
2023/06/20 00:54:28;;;;;;;;;3.00;2.00;;;;;;;;1972210;28;2750285;-75
2023/06/20 00:55:41;;;;;;;;;3.83;3.00;;;;;;;;2020702;28;2739844;-74
2023/06/20 00:56:54;;;;;;;;;1.00;1.00;;;;;;;;1998957;28;2727345;-74
2023/06/20 00:58:07;;;;;;;;;2.17;1.33;;;;;;;;2006521;28;2727454;-75
2023/06/20 00:59:18;;;;;;;;;4.00;2.00;;;;;;;;1980810;28;2754546;-74
2023/06/20 01:00:32;;;;;;;;;2.00;2.00;;;;;;;;2019749;28;2726304;-74
2023/06/20 01:01:45;;;;;;;;;1.00;1.00;;;;;;;;2016376;28;2724231;-74
2023/06/20 01:02:57;;;;;;;;;4.00;2.67;;;;;;;;1973973;28;2752433;-75
2023/06/20 01:04:10;;;;;;;;;2.00;2.00;;;;;;;;2018327;28;2731563;-75
2023/06/20 01:05:26;;;;;;;;;2.67;2.67;;;;;;;;1970086;28;2750274;-75
2023/06/20 01:06:42;;;;;;;;;2.50;1.67;;;;;;;;2021693;28;2737779;-75
2023/06/20 01:08:10;;;;;;;;;5.00;2.00;;;;;;;;1970138;28;3467936;-75
2023/06/20 01:09:28;;;;;;;;;3.00;2.00;;;;;;;;2023095;28;2748189;-74
2023/06/20 01:10:44;;;;;;;;;2.50;1.67;;;;;;;;2004482;28;2731540;-74
2023/06/20 01:12:03;;;;;;;;;2.00;2.00;;;;;;;;1978826;28;2750342;-74
2023/06/20 01:13:19;;;;;;;;;1.67;1.50;;;;;;;;2025607;28;2732558;-74
2023/06/20 01:14:48;;;;;;;;;2.33;2.33;;;;;;;;1979830;28;2747156;-74
2023/06/20 01:16:05;;;;;;;;;2.00;1.83;;;;;;;;2028802;28;2741964;-75
2023/06/20 01:17:31;;;;;;;;;2.00;2.00;;;;;;;;1982448;28;2747179;-75
2023/06/20 01:18:59;;;;;;;;;2.50;1.00;;;;;;;;2031086;28;2724221;-75
2023/06/20 01:20:31;;;;;;;;;2.00;2.00;;;;;;;;2006441;28;2747129;-76
2023/06/20 01:21:45;;;;;;;;;3.00;2.00;;;;;;;;1982630;28;2750302;-76
2023/06/20 01:23:03;;;;;;;;;1.67;1.67;;;;;;;;2026054;28;2742022;-76
2023/06/20 01:24:23;;;;;;;;;2.50;2.50;;;;;;;;2006954;28;2736704;-76
2023/06/20 01:25:51;;;;;;;;;2.67;2.17;;;;;;;;2007569;28;2744031;-76
2023/06/20 01:27:05;;;;;;;;;5.00;4.00;;;;;;;;1974061;28;2746212;-76
2023/06/20 01:28:18;;;;;;;;;2.67;2.00;;;;;;;;1996226;28;2754536;-76
2023/06/20 01:29:32;;;;;;;;;2.83;2.33;;;;;;;;2026888;28;2740416;-76
2023/06/20 01:30:48;;;;;;;;;3.00;3.00;;;;;;;;2007735;28;2740890;-76
2023/06/20 01:32:03;;;;;;;;;3.17;2.17;;;;;;;;2005804;28;2738820;-76
2023/06/20 01:33:15;;;;;;;;;2.67;2.00;;;;;;;;1971616;28;2751299;-76
2023/06/20 01:34:30;;;;;;;;;3.00;3.00;;;;;;;;2014711;28;2753394;-76
2023/06/20 01:35:44;;;;;;;;;3.17;2.00;;;;;;;;2007893;28;2739844;-76
2023/06/20 01:36:58;;;;;;;;;5.00;2.17;;;;;;;;2006434;28;2742958;-76
2023/06/20 01:38:13;;;;;;;;;3.17;2.00;;;;;;;;2006651;28;2738831;-75
2023/06/20 01:39:36;;;;;;;;;2.00;1.33;;;;;;;;2007632;28;2726834;-75
2023/06/20 01:40:50;;;;;;;;;3.00;2.50;;;;;;;;2005054;28;2746104;-75
2023/06/20 01:42:04;;;;;;;;;2.00;1.67;;;;;;;;1997088;28;2730474;-76
2023/06/20 01:43:15;;;;;;;;;3.00;2.00;;;;;;;;1970585;28;2751314;-76
2023/06/20 01:44:27;;;;;;;;;2.00;2.00;;;;;;;;2004066;28;2754521;-77
2023/06/20 01:45:42;;;;;;;;;3.33;3.00;;;;;;;;2029572;28;2744043;-76
2023/06/20 01:46:54;;;;;;;;;4.00;2.33;;;;;;;;1981179;28;2754420;-76
2023/06/20 01:48:09;;;;;;;;;1.67;1.00;;;;;;;;2029758;28;2730463;-75
2023/06/20 01:49:25;;;;;;;;;1.17;1.17;;;;;;;;2007258;28;2728383;-75
2023/06/20 01:50:36;;;;;;;;;5.00;3.00;;;;;;;;1980903;28;2752384;-75
2023/06/20 01:51:52;;;;;;;;;2.00;1.00;;;;;;;;2021896;28;2724247;-75
2023/06/20 01:53:06;;;;;;;;;2.50;2.50;;;;;;;;1997576;28;2751304;-75
2023/06/20 01:54:20;;;;;;;;;4.00;2.17;;;;;;;;2000928;28;2740903;-75
2023/06/20 01:55:31;;;;;;;;;2.00;2.00;;;;;;;;1980951;28;2740947;-75
2023/06/20 01:56:43;;;;;;;;;3.00;1.67;;;;;;;;1994316;28;2741912;-75
2023/06/20 01:57:56;;;;;;;;;2.67;2.00;;;;;;;;1995345;28;2749315;-75
2023/06/20 01:59:09;;;;;;;;;2.50;2.00;;;;;;;;2029073;28;2736736;-75
2023/06/20 02:00:23;;;;;;;;;4.33;2.00;;;;;;;;2006799;28;2733607;-75
2023/06/20 02:01:34;;;;;;;;;3.67;3.00;;;;;;;;1974898;28;2754424;-75
2023/06/20 02:02:46;;;;;;;;;1.00;1.00;;;;;;;;2023227;28;2734638;-75
2023/06/20 02:04:00;;;;;;;;;2.17;2.00;;;;;;;;2022606;28;2735702;-75
2023/06/20 02:05:11;;;;;;;;;3.33;3.33;;;;;;;;1982354;28;2735691;-75
2023/06/20 02:06:23;;;;;;;;;2.00;2.00;;;;;;;;2004184;28;2742992;-75
2023/06/20 02:07:37;;;;;;;;;3.17;3.17;;;;;;;;2029329;28;2739856;-75
2023/06/20 02:08:47;;;;;;;;;3.33;3.00;;;;;;;;1981331;28;2754547;-75
2023/06/20 02:10:00;;;;;;;;;2.50;2.50;;;;;;;;2028250;28;2749244;-75
2023/06/20 02:11:14;;;;;;;;;2.50;2.00;;;;;;;;2029600;28;2739864;-75
2023/06/20 02:12:28;;;;;;;;;3.50;2.67;;;;;;;;2003298;28;2739853;-75
2023/06/20 02:13:42;;;;;;;;;1.83;1.83;;;;;;;;1998959;28;2739868;-75
2023/06/20 02:14:56;;;;;;;;;3.67;1.17;;;;;;;;2005236;28;2731555;-75
2023/06/20 02:16:08;;;;;;;;;4.00;2.00;;;;;;;;1981247;28;2737781;-75
2023/06/20 02:17:19;;;;;;;;;3.00;3.00;;;;;;;;2002910;28;2754435;-75
2023/06/20 02:18:32;;;;;;;;;2.00;2.00;;;;;;;;2029665;28;2750316;-75
2023/06/20 02:19:45;;;;;;;;;4.00;3.33;;;;;;;;2007861;28;2743355;-75
2023/06/20 02:20:56;;;;;;;;;2.33;2.33;;;;;;;;1980861;28;2745061;-75
2023/06/20 02:22:07;;;;;;;;;2.33;2.33;;;;;;;;2003468;28;2749224;-75
2023/06/20 02:23:27;;;;;;;;;2.00;2.00;;;;;;;;1995622;28;2746201;-75
2023/06/20 02:24:42;;;;;;;;;4.00;4.00;;;;;;;;2029077;28;2737797;-75
2023/06/20 02:26:02;;;;;;;;;2.83;2.83;;;;;;;;2006781;28;2740902;-75
2023/06/20 02:27:17;;;;;;;;;2.17;2.00;;;;;;;;2007637;28;2731503;-75
2023/06/20 02:28:30;;;;;;;;;4.00;2.17;;;;;;;;2006096;28;2730542;-75
2023/06/20 02:29:43;;;;;;;;;3.50;3.00;;;;;;;;2006092;28;2742276;-75
2023/06/20 02:30:54;;;;;;;;;3.00;3.00;;;;;;;;1980840;28;2749256;-75
2023/06/20 02:32:05;;;;;;;;;4.33;3.00;;;;;;;;2004172;28;2748245;-75
2023/06/20 02:33:19;;;;;;;;;3.40;2.40;;;;;;;;2020687;28;2739886;-75
2023/06/20 02:34:31;;;;;;;;;2.00;2.00;;;;;;;;2003583;28;2746192;-75
2023/06/20 02:35:42;;;;;;;;;6.00;3.00;;;;;;;;2001417;28;2749283;-75
2023/06/20 02:36:55;;;;;;;;;3.00;3.00;;;;;;;;2003788;28;2738804;-76
2023/06/20 02:38:06;;;;;;;;;2.00;2.00;;;;;;;;2003286;28;2752465;-75
2023/06/20 02:39:16;;;;;;;;;3.67;2.00;;;;;;;;2008417;28;2752443;-75
2023/06/20 02:40:27;;;;;;;;;3.00;3.00;;;;;;;;2019406;28;2736731;-75
2023/06/20 02:41:41;;;;;;;;;3.67;2.33;;;;;;;;2023553;28;2750293;-75
2023/06/20 02:42:52;;;;;;;;;3.67;2.67;;;;;;;;1994331;28;2744540;-75
2023/06/20 02:44:02;;;;;;;;;2.00;2.00;;;;;;;;1996294;28;2748661;-74
2023/06/20 02:45:13;;;;;;;;;5.00;4.00;;;;;;;;2027016;28;2741942;-74
2023/06/20 02:46:44;;;;;;;;;3.00;2.33;;;;;;;;1995259;28;2739882;-74
2023/06/20 02:48:04;;;;;;;;;3.17;3.17;;;;;;;;2025159;28;2720046;-75
2023/06/20 02:49:23;;;;;;;;;5.00;4.00;;;;;;;;1980407;28;2754525;-75
2023/06/20 02:50:55;;;;;;;;;4.33;3.00;;;;;;;;2029305;28;2741921;-75
2023/06/20 02:52:24;;;;;;;;;3.67;3.33;;;;;;;;1980132;28;2746240;-77
2023/06/20 02:53:45;;;;;;;;;3.00;3.00;;;;;;;;2022141;28;2744008;-73
2023/06/20 02:55:07;;;;;;;;;3.33;3.00;;;;;;;;1994985;28;2741920;-73
2023/06/20 02:56:21;;;;;;;;;3.17;3.17;;;;;;;;2001503;28;2739877;-79
2023/06/20 02:57:31;;;;;;;;;3.33;3.00;;;;;;;;1980489;28;2746095;-79
2023/06/20 02:58:45;;;;;;;;;4.33;3.00;;;;;;;;2028284;28;2736720;-79
2023/06/20 03:00:01;;;;;;;;;3.67;2.00;;;;;;;;1981788;28;2731602;-77
2023/06/20 03:01:14;;;;;;;;;4.33;3.67;;;;;;;;2002388;28;3459608;-77
2023/06/20 03:02:28;;;;;;;;;3.67;3.00;;;;;;;;2000782;28;2744593;-77
2023/06/20 03:03:44;;;;;;;;;3.00;3.00;;;;;;;;2030331;28;2731543;-77
2023/06/20 03:04:57;;;;;;;;;3.33;2.00;;;;;;;;1974038;28;2752345;-77
2023/06/20 03:06:09;;;;;;;;;4.00;4.00;;;;;;;;1998842;28;3464852;-75
2023/06/20 03:07:20;;;;;;;;;6.00;4.00;;;;;;;;2002627;28;3460684;-76
2023/06/20 03:08:32;;;;;;;;;3.00;3.00;;;;;;;;2028495;28;2731563;-76
2023/06/20 03:09:46;;;;;;;;;2.83;2.00;;;;;;;;2007718;28;2733587;-76
2023/06/20 03:11:00;;;;;;;;;4.00;2.67;;;;;;;;1980678;28;2744066;-76
2023/06/20 03:12:11;;;;;;;;;3.67;3.00;;;;;;;;2002841;28;2744172;-76
2023/06/20 03:13:21;;;;;;;;;4.00;4.00;;;;;;;;2006904;28;2749216;-76
2023/06/20 03:14:32;;;;;;;;;2.67;2.67;;;;;;;;2012593;28;2752365;-76
2023/06/20 03:15:43;;;;;;;;;5.67;5.67;;;;;;;;2017835;28;2752353;-76
2023/06/20 03:16:54;;;;;;;;;3.00;3.00;;;;;;;;2022092;28;2738818;-76
2023/06/20 03:18:05;;;;;;;;;3.00;3.00;;;;;;;;2023006;28;2739906;-77
2023/06/20 03:19:16;;;;;;;;;3.00;3.00;;;;;;;;2013668;28;2741939;-77
2023/06/20 03:20:27;;;;;;;;;4.00;4.00;;;;;;;;2016323;28;2751563;-76
2023/06/20 03:21:41;;;;;;;;;7.33;5.00;;;;;;;;2003746;28;2740891;-76
2023/06/20 03:22:51;;;;;;;;;4.00;4.00;;;;;;;;1989819;28;2750346;-76
2023/06/20 03:24:02;;;;;;;;;3.00;3.00;;;;;;;;2020475;28;2740905;-75
2023/06/20 03:25:12;;;;;;;;;4.67;3.67;;;;;;;;2001337;28;3453347;-75
2023/06/20 03:26:23;;;;;;;;;3.00;3.00;;;;;;;;2023206;28;2738803;-75
2023/06/20 03:27:34;;;;;;;;;3.00;3.00;;;;;;;;2027893;28;2740874;-74
2023/06/20 03:28:44;;;;;;;;;3.33;3.33;;;;;;;;2002682;28;2745129;-74
2023/06/20 03:29:56;;;;;;;;;4.67;2.00;;;;;;;;2023294;28;2744008;-75
2023/06/20 03:31:09;;;;;;;;;2.50;2.50;;;;;;;;2020972;28;2725328;-75
2023/06/20 03:32:19;;;;;;;;;4.00;4.00;;;;;;;;1972661;28;2746660;-74
2023/06/20 03:33:30;;;;;;;;;5.00;3.33;;;;;;;;2024479;28;3464859;-74
2023/06/20 03:34:41;;;;;;;;;3.33;3.33;;;;;;;;2022216;28;2753470;-75
2023/06/20 03:35:52;;;;;;;;;6.00;3.33;;;;;;;;2020527;28;2741995;-75
2023/06/20 03:37:02;;;;;;;;;4.33;4.33;;;;;;;;2018711;28;2751335;-74
2023/06/20 03:38:13;;;;;;;;;3.67;3.67;;;;;;;;2018601;28;2747140;-77
2023/06/20 03:39:24;;;;;;;;;5.67;4.00;;;;;;;;2013657;28;2749215;-77
2023/06/20 03:40:35;;;;;;;;;5.00;3.00;;;;;;;;2011737;28;2750708;-77
2023/06/20 03:41:46;;;;;;;;;7.00;5.00;;;;;;;;2015002;28;2743034;-77
2023/06/20 03:42:57;;;;;;;;;5.00;4.00;;;;;;;;2020397;28;2746251;-76
2023/06/20 03:44:08;;;;;;;;;4.33;4.33;;;;;;;;2027718;28;2740899;-76
2023/06/20 03:45:18;;;;;;;;;4.67;4.00;;;;;;;;2003329;28;2751403;-76
2023/06/20 03:46:29;;;;;;;;;5.00;4.33;;;;;;;;2021524;28;2745603;-76
2023/06/20 03:47:40;;;;;;;;;5.33;3.00;;;;;;;;2021994;28;2739890;-76
2023/06/20 03:48:51;;;;;;;;;6.33;4.33;;;;;;;;2020878;28;2752450;-76
2023/06/20 03:50:03;;;;;;;;;5.00;5.00;;;;;;;;2027289;28;2742992;-76
2023/06/20 03:51:13;;;;;;;;;5.00;4.00;;;;;;;;2001667;28;2746191;-76
2023/06/20 03:52:24;;;;;;;;;4.00;4.00;;;;;;;;2026745;28;2739877;-76
2023/06/20 03:53:36;;;;;;;;;4.40;4.40;;;;;;;;2019983;28;2730467;-74
2023/06/20 03:54:46;;;;;;;;;5.33;4.00;;;;;;;;1978226;28;3451310;-74
2023/06/20 03:55:57;;;;;;;;;5.00;5.00;;;;;;;;2027513;28;2737779;-74
2023/06/20 03:57:08;;;;;;;;;8.33;4.67;;;;;;;;2002273;28;2742028;-74
2023/06/20 03:58:18;;;;;;;;;6.67;4.00;;;;;;;;2023059;28;2747240;-74
2023/06/20 03:59:29;;;;;;;;;8.33;5.00;;;;;;;;2022776;28;2746104;-74
2023/06/20 04:00:40;;;;;;;;;5.67;4.00;;;;;;;;2021713;28;2741023;-76
2023/06/20 04:01:52;;;;;;;;;4.00;4.00;;;;;;;;2022600;28;2747150;-76
2023/06/20 04:03:03;;;;;;;;;5.67;4.00;;;;;;;;2003082;28;2735726;-76
2023/06/20 04:04:14;;;;;;;;;5.33;3.00;;;;;;;;2006459;28;3457552;-77
2023/06/20 04:05:24;;;;;;;;;5.00;4.00;;;;;;;;2006220;28;2754499;-77
2023/06/20 04:06:35;;;;;;;;;4.00;4.00;;;;;;;;2021271;28;2750327;-75
2023/06/20 04:07:46;;;;;;;;;4.00;4.00;;;;;;;;2018361;28;3463766;-77
2023/06/20 04:08:58;;;;;;;;;10.67;5.00;;;;;;;;2022503;28;3482544;-77
2023/06/20 04:10:11;;;;;;;;;2.83;2.17;;;;;;;;2027979;28;2743081;-78
2023/06/20 04:11:22;;;;;;;;;4.00;4.00;;;;;;;;1979870;28;2752408;-78
2023/06/20 04:12:33;;;;;;;;;5.00;4.00;;;;;;;;2025412;28;2747198;-78
2023/06/20 04:13:44;;;;;;;;;4.00;4.00;;;;;;;;2020744;28;2738361;-78
2023/06/20 04:14:55;;;;;;;;;5.33;5.33;;;;;;;;2022186;28;2742973;-77
2023/06/20 04:16:05;;;;;;;;;7.33;3.00;;;;;;;;2018362;28;2754563;-77
2023/06/20 04:17:16;;;;;;;;;4.00;4.00;;;;;;;;2028055;28;2739839;-77
2023/06/20 04:18:27;;;;;;;;;6.33;4.33;;;;;;;;1981392;28;2749232;-74
2023/06/20 04:19:37;;;;;;;;;4.00;4.00;;;;;;;;2023267;28;2739879;-75
2023/06/20 04:20:48;;;;;;;;;4.67;4.67;;;;;;;;2021363;28;2738177;-75
2023/06/20 04:21:59;;;;;;;;;5.00;4.67;;;;;;;;2017798;28;3453402;-75
2023/06/20 04:23:11;;;;;;;;;6.75;5.00;;;;;;;;2015651;28;2740911;-75
2023/06/20 04:24:21;;;;;;;;;6.00;4.00;;;;;;;;1995243;28;2752466;-75
2023/06/20 04:25:33;;;;;;;;;4.33;3.33;;;;;;;;2017155;28;2749264;-75
2023/06/20 04:26:44;;;;;;;;;6.00;4.33;;;;;;;;1995591;28;2752400;-75
2023/06/20 04:27:55;;;;;;;;;4.00;4.00;;;;;;;;2017190;28;3457528;-74
2023/06/20 04:29:06;;;;;;;;;5.00;3.00;;;;;;;;2002862;28;2744437;-74
2023/06/20 04:30:16;;;;;;;;;7.00;4.00;;;;;;;;2005544;28;3457513;-74
2023/06/20 04:31:29;;;;;;;;;6.00;4.00;;;;;;;;2028347;28;1821084;-75
2023/06/20 04:32:41;;;;;;;;;5.00;4.00;;;;;;;;1986129;28;3455460;-74
2023/06/20 04:33:53;;;;;;;;;3.00;3.00;;;;;;;;1996410;28;2750264;-75
2023/06/20 04:35:03;;;;;;;;;5.33;4.33;;;;;;;;2002858;28;2746111;-74
2023/06/20 04:36:14;;;;;;;;;4.33;4.33;;;;;;;;2007349;28;3463802;-74
2023/06/20 04:37:25;;;;;;;;;7.00;5.00;;;;;;;;2013450;28;2745644;-74
2023/06/20 04:38:37;;;;;;;;;6.00;5.33;;;;;;;;2019915;28;2736715;-74
2023/06/20 04:39:47;;;;;;;;;4.33;4.33;;;;;;;;2003070;28;2745062;-74
2023/06/20 04:41:00;;;;;;;;;5.00;5.00;;;;;;;;2016721;28;2734090;-73
2023/06/20 04:42:10;;;;;;;;;8.33;5.00;;;;;;;;1995483;28;2748294;-73
2023/06/20 04:43:22;;;;;;;;;7.67;5.00;;;;;;;;2018781;28;2738823;-72
2023/06/20 04:44:33;;;;;;;;;6.00;5.00;;;;;;;;1995138;28;2747233;-72
2023/06/20 04:45:46;;;;;;;;;8.00;5.67;;;;;;;;2019646;28;2744012;-73
2023/06/20 04:46:59;;;;;;;;;4.50;1.83;;;;;;;;1995625;28;2724244;-73
2023/06/20 04:48:09;;;;;;;;;6.67;5.00;;;;;;;;1971363;28;2748260;-73
2023/06/20 04:49:20;;;;;;;;;6.00;4.00;;;;;;;;2023285;28;2742070;-73
2023/06/20 04:50:31;;;;;;;;;4.00;4.00;;;;;;;;2006431;28;2738862;-73
2023/06/20 04:51:42;;;;;;;;;5.67;5.67;;;;;;;;2007203;28;2748198;-73
2023/06/20 04:52:53;;;;;;;;;5.00;5.00;;;;;;;;2022060;28;2746160;-72
2023/06/20 04:54:04;;;;;;;;;7.00;5.00;;;;;;;;2025429;28;2730478;-73
2023/06/20 04:55:20;;;;;;;;;0.50;0.00;;;;;;;;2020080;28;2708589;-73
2023/06/20 04:56:31;;;;;;;;;7.00;4.67;;;;;;;;1984391;28;3463835;-73
2023/06/20 04:57:42;;;;;;;;;7.00;5.00;;;;;;;;2006350;28;2745118;-73
2023/06/20 04:58:53;;;;;;;;;5.67;5.00;;;;;;;;1989639;28;2746118;-73
2023/06/20 05:00:12;;;;;;;;;5.67;5.67;;;;;;;;2025664;28;3456519;-75
2023/06/20 05:01:23;;;;;;;;;5.33;4.67;;;;;;;;2002363;28;2746154;-74
2023/06/20 05:02:34;;;;;;;;;4.00;4.00;;;;;;;;2015874;28;2752435;-74
2023/06/20 05:03:45;;;;;;;;;5.00;5.00;;;;;;;;2015553;28;3451679;-74
2023/06/20 05:04:56;;;;;;;;;4.00;4.00;;;;;;;;2000830;28;3459098;-73
2023/06/20 05:06:07;;;;;;;;;8.33;7.00;;;;;;;;2024502;28;2737768;-73
2023/06/20 05:07:18;;;;;;;;;7.00;4.00;;;;;;;;2020091;28;2750301;-72
2023/06/20 05:08:28;;;;;;;;;7.00;5.00;;;;;;;;2001320;28;2746118;-73
2023/06/20 05:09:39;;;;;;;;;7.00;4.33;;;;;;;;2014195;28;3459637;-73
2023/06/20 05:10:50;;;;;;;;;4.00;4.00;;;;;;;;2014834;28;3456510;-72
2023/06/20 05:12:01;;;;;;;;;5.00;5.00;;;;;;;;2018490;28;2752388;-72
2023/06/20 05:13:12;;;;;;;;;4.00;4.00;;;;;;;;2011974;28;2749366;-72
2023/06/20 05:14:23;;;;;;;;;8.00;6.00;;;;;;;;2014303;28;2737769;-73
2023/06/20 05:15:34;;;;;;;;;6.00;6.00;;;;;;;;2025861;28;2746122;-73
2023/06/20 05:16:44;;;;;;;;;4.33;4.33;;;;;;;;1999685;28;3460670;-73
2023/06/20 05:17:55;;;;;;;;;5.33;5.33;;;;;;;;2022314;28;2740993;-73
2023/06/20 05:19:06;;;;;;;;;6.67;5.00;;;;;;;;2008793;28;2743022;-72
2023/06/20 05:20:17;;;;;;;;;3.33;2.67;;;;;;;;2009099;28;2750341;-72
2023/06/20 05:21:28;;;;;;;;;7.00;5.00;;;;;;;;2005853;28;2754487;-72
2023/06/20 05:22:38;;;;;;;;;6.00;5.00;;;;;;;;2020581;28;2740921;-72
2023/06/20 05:23:51;;;;;;;;;9.20;6.80;;;;;;;;2018075;28;2735697;-72
2023/06/20 05:25:04;;;;;;;;;6.83;6.00;;;;;;;;1996482;28;2736763;-72
2023/06/20 05:26:17;;;;;;;;;4.17;4.00;;;;;;;;2005022;28;2737761;-72
2023/06/20 05:27:27;;;;;;;;;5.67;4.00;;;;;;;;1977562;28;3457528;-72
2023/06/20 05:28:38;;;;;;;;;8.00;4.00;;;;;;;;2016181;28;2746157;-72
2023/06/20 05:29:49;;;;;;;;;5.00;3.33;;;;;;;;2022680;28;1818063;-72
2023/06/20 05:30:59;;;;;;;;;4.00;4.00;;;;;;;;1987233;28;2739894;-72
2023/06/20 05:32:10;;;;;;;;;5.00;5.00;;;;;;;;2025218;28;2743583;-72
2023/06/20 05:33:21;;;;;;;;;6.67;6.33;;;;;;;;2012346;28;1822121;-72
2023/06/20 05:34:32;;;;;;;;;7.00;5.67;;;;;;;;1993932;28;2741965;-72
2023/06/20 05:35:44;;;;;;;;;7.00;5.33;;;;;;;;1988402;28;2740956;-73
2023/06/20 05:36:54;;;;;;;;;7.00;6.33;;;;;;;;1992719;28;2744096;-72
2023/06/20 05:38:05;;;;;;;;;7.67;5.33;;;;;;;;2021940;28;2741988;-72
2023/06/20 05:39:16;;;;;;;;;6.67;5.33;;;;;;;;2012237;28;3465920;-72
2023/06/20 05:40:27;;;;;;;;;6.00;4.33;;;;;;;;2013138;28;2743395;-72
2023/06/20 05:41:38;;;;;;;;;5.33;5.33;;;;;;;;2009266;28;2746118;-73
2023/06/20 05:42:49;;;;;;;;;7.67;5.00;;;;;;;;1997688;28;3454444;-72
2023/06/20 05:44:00;;;;;;;;;6.33;5.00;;;;;;;;2015175;28;2746104;-72
2023/06/20 05:45:11;;;;;;;;;5.67;5.33;;;;;;;;2001280;28;3460658;-72
2023/06/20 05:46:24;;;;;;;;;7.67;6.83;;;;;;;;2020430;28;2739884;-72
2023/06/20 05:47:34;;;;;;;;;5.00;5.00;;;;;;;;1970371;28;3460076;-72
2023/06/20 05:48:48;;;;;;;;;4.67;4.00;;;;;;;;2022820;28;3456498;-72
2023/06/20 05:49:59;;;;;;;;;7.67;6.00;;;;;;;;1994052;28;2740994;-72
2023/06/20 05:51:13;;;;;;;;;6.33;5.00;;;;;;;;1987431;28;2743020;-73
2023/06/20 05:52:23;;;;;;;;;4.33;4.00;;;;;;;;1995107;28;2740348;-73
2023/06/20 05:53:34;;;;;;;;;8.00;6.33;;;;;;;;2012823;28;3459635;-73
2023/06/20 05:54:45;;;;;;;;;7.67;6.67;;;;;;;;2004483;28;2739331;-73
2023/06/20 05:55:58;;;;;;;;;7.33;5.67;;;;;;;;2019299;28;2736728;-73
2023/06/20 05:57:08;;;;;;;;;5.00;3.33;;;;;;;;1980660;28;2752378;-73
2023/06/20 05:58:20;;;;;;;;;6.33;6.00;;;;;;;;2016919;28;2737793;-73
2023/06/20 05:59:30;;;;;;;;;6.00;4.00;;;;;;;;2009928;28;2743059;-73
2023/06/20 06:00:42;;;;;;;;;6.00;5.00;;;;;;;;2018293;28;2748333;-73
2023/06/20 06:01:55;;;;;;;;;7.33;5.83;;;;;;;;2027820;28;2738795;-73
2023/06/20 06:03:06;;;;;;;;;10.00;7.00;;;;;;;;1977602;28;2752359;-73
2023/06/20 06:04:16;;;;;;;;;7.67;7.33;;;;;;;;2015677;28;2735706;-73
2023/06/20 06:05:27;;;;;;;;;7.67;6.67;;;;;;;;2026721;28;1814842;-73
2023/06/20 06:06:38;;;;;;;;;5.00;5.00;;;;;;;;2018248;28;1813858;-73
2023/06/20 06:07:49;;;;;;;;;8.33;6.67;;;;;;;;1999206;28;3445172;-72
2023/06/20 06:09:00;;;;;;;;;6.00;6.00;;;;;;;;2029592;28;1814907;-73
2023/06/20 06:10:10;;;;;;;;;8.00;6.33;;;;;;;;1989256;28;2734699;-72
2023/06/20 06:11:21;;;;;;;;;12.00;7.00;;;;;;;;2006332;28;2751323;-73
2023/06/20 06:12:32;;;;;;;;;6.00;6.00;;;;;;;;2017167;28;2735741;-74
2023/06/20 06:13:43;;;;;;;;;6.67;6.00;;;;;;;;2014785;28;2737851;-73
2023/06/20 06:14:53;;;;;;;;;5.00;5.00;;;;;;;;1967546;28;3460650;-73
2023/06/20 06:16:05;;;;;;;;;8.00;8.00;;;;;;;;2019971;28;2731540;-72
2023/06/20 06:17:15;;;;;;;;;9.00;7.50;;;;;;;;1995375;28;2739841;-72
2023/06/20 06:18:26;;;;;;;;;8.00;6.00;;;;;;;;2023657;28;2734677;-73
2023/06/20 06:19:37;;;;;;;;;6.00;6.00;;;;;;;;2022533;28;2737878;-72
2023/06/20 06:20:48;;;;;;;;;7.33;6.67;;;;;;;;2026772;28;2744020;-73
2023/06/20 06:22:00;;;;;;;;;5.60;5.60;;;;;;;;2027937;28;2739877;-73
2023/06/20 06:23:11;;;;;;;;;9.33;7.00;;;;;;;;1971852;28;3466310;-73
2023/06/20 06:24:22;;;;;;;;;5.50;5.50;;;;;;;;2024297;28;1819092;-72
2023/06/20 06:25:32;;;;;;;;;5.00;5.00;;;;;;;;2005894;28;2746253;-73
2023/06/20 06:26:43;;;;;;;;;5.67;5.33;;;;;;;;2023722;28;2743037;-73
2023/06/20 06:27:54;;;;;;;;;8.00;6.33;;;;;;;;2017468;28;2736226;-73
2023/06/20 06:29:04;;;;;;;;;6.00;5.33;;;;;;;;1989255;28;3465850;-72
2023/06/20 06:30:15;;;;;;;;;10.00;7.00;;;;;;;;2014664;28;2761734;-73
2023/06/20 06:31:29;;;;;;;;;7.33;5.67;;;;;;;;2002237;28;2730501;-73
2023/06/20 06:32:40;;;;;;;;;7.67;7.00;;;;;;;;1978184;28;2738873;-73
2023/06/20 06:33:51;;;;;;;;;10.33;6.00;;;;;;;;1980019;28;3470489;-73
2023/06/20 06:35:02;;;;;;;;;7.00;7.00;;;;;;;;2000782;28;3447167;-73
2023/06/20 06:36:16;;;;;;;;;5.83;5.83;;;;;;;;2015131;28;2736762;-73
2023/06/20 06:37:26;;;;;;;;;8.00;5.67;;;;;;;;1970909;28;3447145;-73
2023/06/20 06:38:37;;;;;;;;;8.33;7.67;;;;;;;;2003075;28;3447172;-73
2023/06/20 06:39:48;;;;;;;;;6.00;6.00;;;;;;;;2015575;28;2726316;-73
2023/06/20 06:40:59;;;;;;;;;8.67;8.00;;;;;;;;2002720;28;2742005;-73
2023/06/20 06:42:09;;;;;;;;;9.33;6.00;;;;;;;;2001108;28;3465874;-73
2023/06/20 06:43:21;;;;;;;;;9.33;6.33;;;;;;;;2004337;28;3460670;-73
2023/06/20 06:44:32;;;;;;;;;8.25;6.75;;;;;;;;2013139;28;2739853;-73
2023/06/20 06:45:42;;;;;;;;;6.00;6.00;;;;;;;;1978541;28;2736823;-73
2023/06/20 06:46:53;;;;;;;;;10.25;8.25;;;;;;;;2026854;28;1819075;-73
2023/06/20 06:48:04;;;;;;;;;11.00;9.50;;;;;;;;2001722;28;2785700;-73
2023/06/20 06:49:14;;;;;;;;;7.00;6.00;;;;;;;;2014142;28;2734707;-73
2023/06/20 06:50:25;;;;;;;;;7.00;6.50;;;;;;;;2025422;28;2737797;-73
2023/06/20 06:51:37;;;;;;;;;7.00;5.67;;;;;;;;2018209;28;1811235;-74
2023/06/20 06:52:47;;;;;;;;;9.00;8.00;;;;;;;;1981953;28;2740872;-74
2023/06/20 06:53:58;;;;;;;;;7.00;6.33;;;;;;;;1982305;28;3447185;-73
2023/06/20 06:55:09;;;;;;;;;7.33;5.00;;;;;;;;2016237;28;2743081;-73
2023/06/20 06:56:20;;;;;;;;;7.00;6.00;;;;;;;;2021751;28;2727384;-73
2023/06/20 06:57:30;;;;;;;;;5.67;5.67;;;;;;;;2009414;28;1814956;-73
2023/06/20 06:58:42;;;;;;;;;7.00;6.00;;;;;;;;1985652;28;2468994;-73
2023/06/20 06:59:52;;;;;;;;;10.00;7.00;;;;;;;;1989595;28;2754425;-73
2023/06/20 07:01:03;;;;;;;;;10.00;7.00;;;;;;;;1993664;28;2750277;-73